Tiempo atmosférico en la estación meteorológica de Córdoba, Prágdena, Córdoba (275 m.)



Fecha
DESCASC
Temp. máxima en grados centígrados (hora)
DESCASC
Temp. mínima en grados centígrados (hora)
DESCASC
Temp. media en grados centígrados
DESCASC
Racha de viento máxima en m/sg (hora)
DESCASC
Velocidad máxima media en intervalos de 10 minutos(hora)
DESCASC
Precipitaciones diarias en mm
DESCASC
Precipitaciones de 00:00 a 06:00 en mm
DESCASC
Precipitaciones de 06:00 a 12:00 en mm
DESCASC
Precipitaciones de 12:00 a 18:00 en mm
DESCASC
Precipitaciones de 18:00 a 24:00 en mm
DESCASC
13-01-2021 15.1 (17:20) -2.7 (08:00) 6.2 3.61 (02:50) 2.78 (00:40) 0 0 0 0 0
12-01-2021 10.8 (16:50) -1.9 (08:20) 4.5 5 (13:50) 3.33 (11:50) 0 0 0 0 0
11-01-2021 10.4 (16:40) -0.4 (08:20) 5 6.39 (14:40) 3.89 (02:00) 0 0 0 0 0
10-01-2021 9.2 (15:30) 1.3 (04:50) 5.2 5.28 (15:50) 3.89 (22:40) 0 0 0 0 0
09-01-2021 8.4 (17:00) 3.1 (00:00) 5.7 14.44 (01:50) 8.33 (05:30) 3.4 3.4 0 0 0
08-01-2021 8.6 (17:50) 4.9 (00:00) 6.8 9.17 (04:50) 6.11 (15:20) 20.8 6.4 5.4 3.2 5.8
07-01-2021 6.3 (14:20) 4.9 (00:00) 5.6 8.06 (21:00) 5.28 (21:10) 16.8 3.2 5.6 3 5
06-01-2021 9.1 (15:20) 1.9 (00:00) 5.5 6.94 (15:40) 5 (15:30) 1.8 0 0 0 1.8
05-01-2021 9.5 (14:40) 2 (00:00) 5.8 5.83 (11:40) 4.17 (11:40) 0.2 0.2 0 0 0
04-01-2021 9.3 (15:50) -1.6 (-00:0) 3.9 5.83 (16:50) 3.33 (16:50) 0.8 0 0 0 0.8
03-01-2021 9.3 (16:30) -2.9 (-00:0) 3.2 5.28 (15:40) 3.61 (15:40) 0 0 0 0 0
02-01-2021 8.9 (16:30) 0.3 (00:00) 4.6 6.39 (15:20) 3.89 (17:00) 0.2 0.2 0 0 0
01-01-2021 9.9 (16:30) 3.4 (00:00) 6.6 9.44 (19:30) 6.39 (19:30) 2.8 1.2 0 0 1.6
31-12-2020 10.2 (15:50) -2.3 (-00:0) 3.9 9.17 (22:50) 4.72 (23:00) 0 0 0 0 0
30-12-2020 10.7 (16:10) 0.3 (00:00) 5.5 3.89 (13:40) 1.67 (00:50) 0 0 0 0 0
29-12-2020 11.4 (16:20) 2.8 (00:00) 7.1 10 (16:10) 6.11 (16:10) 0 0 0 0 0
28-12-2020 13.4 (15:50) 4 (00:00) 8.7 13.06 (08:10) 7.78 (08:20) 3.8 0 3.6 0.2 0
27-12-2020 11.4 (16:30) -1.5 (-00:0) 4.9 5.28 (15:20) 3.61 (22:40) 0 0 0 0 0
26-12-2020 10.2 (16:10) 2.1 (00:00) 6.1 13.33 (12:00) 9.44 (12:00) 0 0 0 0 0
25-12-2020 13.7 (15:10) 5.4 (00:00) 9.5 11.67 (13:10) 7.78 (13:10) 0 0 0 0 0
24-12-2020 17.2 (15:00) 9.3 (00:00) 13.3 4.17 (14:40) 2.22 (15:30) 0 0 0 0 0
23-12-2020 16.7 (14:20) 6.1 (00:00) 11.4 3.89 (23:30) 2.78 (03:00) 0 0 0 0 0
22-12-2020 20.3 (16:40) 6.4 (00:00) 13.3 4.44 (10:50) 3.06 (02:30) 0 0 0 0 0
21-12-2020 16.6 (16:50) 5.3 (00:00) 11 5 (13:20) 3.33 (07:40) 0 0 0 0 0
20-12-2020 16.8 (15:50) 7.8 (00:00) 12.3 4.72 (14:00) 2.78 (01:20) 1.8 1.6 0.2 0 0
19-12-2020 11.4 (17:10) 7 (00:00) 9.2 5 (05:10) 3.33 (03:40) 4.4 0 0 2.6 1.8
18-12-2020 12 (16:10) 6.3 (00:00) 9.2 3.33 (15:00) 2.22 (20:20) 0.2 0 0.2 0 0
17-12-2020 15.9 (17:00) 9.9 (00:00) 12.9 4.17 (13:10) 2.78 (13:10) 0.2 0.2 0 0 0

Gráficas

Temp. máximas Temp. mínimas Temp. medias Precipitaciones Rachas de viento máximas Velocidades máximas media en intervalos de 10 minutos

Datos horarios

Fecha y hora oficial Temperatura (ºC) Velocidad del viento (km/h) Dirección del viento Racha (km/h) Dirección de racha Precipitación (mm) Presión (hPa) Tendencia (hPa) Humedad (%)
2021-01-15 23:00:00 5.6 9 Norte 13 Nordeste 0 -- -- 76
2021-01-15 22:00:00 6.7 8 Nordeste 13 Nordeste 0 -- -- 72
2021-01-15 21:00:00 8.2 5 Nordeste 6 Nordeste 0 -- -- 70
2021-01-15 20:00:00 9.5 4 Norte 6 Nordeste 0 -- -- 65
2021-01-15 19:00:00 10.6 4 Nordeste 12 Nordeste 0 -- -- 60
2021-01-15 18:00:00 13.6 9 Nordeste 14 Nordeste 0 -- -- 51
2021-01-15 17:00:00 14.6 8 Nordeste 16 Nordeste 0 -- -- 48
2021-01-15 16:00:00 14.6 8 Nordeste 20 Nordeste 0 -- -- 48
2021-01-15 15:00:00 13.9 11 Nordeste 22 Nordeste 0 -- -- 50
2021-01-15 14:00:00 12.4 5 Norte 15 Norte 0 -- -- 56
2021-01-15 13:00:00 10.2 6 Norte 11 Nordeste 0 -- -- 63
2021-01-15 12:00:00 7.5 8 Nordeste 14 Nordeste 0 -- -- 67
2021-01-15 11:00:00 5.5 7 Nordeste 13 Nordeste 0 -- -- 76
2021-01-15 10:00:00 1.1 4 Nordeste 10 Nordeste 0 -- -- 93
2021-01-15 09:00:00 -0.3 9 Nordeste 11 Nordeste 0 -- -- 98
2021-01-15 08:00:00 -1.7 7 Norte 10 Norte 0 -- -- 98
2021-01-15 07:00:00 -0.7 6 Norte 12 Norte 0 -- -- 98
2021-01-15 06:00:00 -0.6 8 Norte 12 Nordeste 0 -- -- 97
2021-01-15 05:00:00 -0.2 7 Norte 10 Nordeste 0 -- -- 98
2021-01-15 04:00:00 0.6 8 Norte 12 Norte 0 -- -- 96
2021-01-15 03:00:00 0.3 8 Norte 11 Norte 0 -- -- 96
2021-01-15 02:00:00 1.1 6 Norte 9 Nordeste 0 -- -- 92
2021-01-15 01:00:00 2 2 Nordeste 4 Norte 0 -- -- 91
2021-01-15 00:00:00 3.2 2 Norte 7 Norte 0 -- -- 90
2021-01-14 23:00:00 3.1 4 Nordeste 5 Nordeste 0 -- -- 89
2021-01-14 22:00:00 3.7 4 Sudoeste 6 Sudoeste 0 -- -- 88
2021-01-14 21:00:00 4.7 3 Sur 4 Sudeste 0 -- -- 80
2021-01-14 20:00:00 5.8 2 Este 4 Nordeste 0 -- -- 77
2021-01-14 19:00:00 6.8 2 Este 3 Este 0 -- -- 74
2021-01-14 18:00:00 10.3 2 Oeste 6 Noroeste 0 -- -- 63
2021-01-14 17:00:00 10 3 Oeste 13 Sudoeste 0 -- -- 62
2021-01-14 16:00:00 11.6 2 Sudoeste 8 Sudoeste 0 -- -- 56
2021-01-14 15:00:00 10.7 0 Calma 5 Norte 0 -- -- 59
2021-01-14 14:00:00 10 0 Calma 7 Sudoeste 0 -- -- 60
2021-01-14 13:00:00 7.7 4 Norte 10 Norte 0 -- -- 69
2021-01-14 12:00:00 7.6 0 Calma 3 Oeste 0 -- -- 68
2021-01-14 11:00:00 3.5 3 Nordeste 11 Norte 0 -- -- 83
2021-01-14 10:00:00 0.6 5 Norte 7 Nordeste 0 -- -- 90
2021-01-14 09:00:00 -0.7 5 Nordeste 6 Nordeste 0 -- -- 93
2021-01-14 08:00:00 -1.2 5 Nordeste 7 Norte 0 -- -- 95
2021-01-14 07:00:00 -0.7 3 Norte 4 Norte 0 -- -- 93
2021-01-14 06:00:00 -0.7 0 Calma 3 Norte 0 -- -- 92
2021-01-14 05:00:00 0.7 2 Norte 3 Norte 0 -- -- 89
2021-01-14 04:00:00 0.6 0 Calma 3 Sudoeste 0 -- -- 90
2021-01-14 03:00:00 1.1 2 Sudoeste 3 Sudoeste 0 -- -- 86
2021-01-14 02:00:00 2 0 Calma 5 Sudoeste 0 -- -- 81
2021-01-14 01:00:00 2.6 4 Sudoeste 5 Sudoeste 0 -- -- 80
2021-01-14 00:00:00 2.2 4 Sudoeste 6 Sudoeste 0 -- -- 80
2021-01-13 23:00:00 3.5 3 Sudoeste 6 Sudoeste 0 -- -- 73
2021-01-13 22:00:00 4.1 0 Calma 2 Sudeste 0 -- -- 69
2021-01-13 21:00:00 5.1 0 Calma 3 Este 0 -- -- 68
2021-01-13 20:00:00 6.7 3 Este 8 Oeste 0 -- -- 59
2021-01-13 19:00:00 9.6 6 Oeste 9 Oeste 0 -- -- 45
2021-01-13 18:00:00 12.8 3 Sudoeste 4 Oeste 0 -- -- 38
2021-01-13 17:00:00 14.4 0 Calma 6 Este 0 -- -- 31
2021-01-13 16:00:00 14 2 Norte 9 Norte 0 -- -- 34
2021-01-13 15:00:00 12.3 3 Norte 13 Norte 0 -- -- 45
2021-01-13 14:00:00 10.6 3 Norte 11 Noroeste 0 -- -- 47
2021-01-13 13:00:00 8.2 4 Norte 9 Noroeste 0 -- -- 60
2021-01-13 12:00:00 6 5 Norte 12 Nordeste 0 -- -- 67
2021-01-13 11:00:00 3 7 Nordeste 12 Nordeste 0 -- -- 78
2021-01-13 10:00:00 -0.5 9 Norte 11 Norte 0 -- -- 91
2021-01-13 09:00:00 -2.3 6 Norte 11 Nordeste 0 -- -- 95
2021-01-13 08:00:00 -2.7 3 Norte 9 Norte 0 -- -- 96
2021-01-13 07:00:00 -1.6 5 Nordeste 9 Norte 0 -- -- 92
2021-01-13 06:00:00 -1.4 6 Nordeste 9 Nordeste 0 -- -- 94
2021-01-13 05:00:00 -1 4 Nordeste 8 Norte 0 -- -- 93
2021-01-13 04:00:00 -0.6 5 Norte 12 Nordeste 0 -- -- 93
2021-01-13 03:00:00 -0.3 9 Norte 13 Norte 0 -- -- 90
2021-01-13 02:00:00 0.6 7 Nordeste 9 Nordeste 0 -- -- 85
2021-01-13 01:00:00 1 8 Nordeste 13 Norte 0 -- -- 82
2021-01-13 00:00:00 2 7 Norte 9 Norte 0 -- -- 76
2021-01-12 23:00:00 3.4 6 Nordeste 7 Nordeste 0 -- -- 68
2021-01-12 22:00:00 4.1 3 Nordeste 6 Este 0 -- -- 61
2021-01-12 21:00:00 4.9 4 Nordeste 8 Este 0 -- -- 58
2021-01-12 20:00:00 5 5 Nordeste 6 Nordeste 0 -- -- 62
2021-01-12 19:00:00 6.6 4 Norte 6 Nordeste 0 -- -- 54
2021-01-12 18:00:00 9.7 4 Nordeste 6 Nordeste 0 -- -- 45
2021-01-12 17:00:00 10.6 3 Norte 10 Nordeste 0 -- -- 42
2021-01-12 16:00:00 10.2 7 Norte 14 Norte 0 -- -- 45
2021-01-12 15:00:00 9.9 5 Nordeste 12 Nordeste 0 -- -- 44
2021-01-12 14:00:00 8.8 6 Nordeste 18 Nordeste 0 -- -- 58
2021-01-12 13:00:00 7.2 8 Nordeste 15 Nordeste 0 -- -- 70
2021-01-12 12:00:00 5 11 Nordeste 17 Nordeste 0 -- -- 74
2021-01-12 11:00:00 2.8 8 Nordeste 14 Nordeste 0 -- -- 79
2021-01-12 10:00:00 0.4 5 Nordeste 12 Nordeste 0 -- -- 91
2021-01-12 09:00:00 -1.3 6 Nordeste 13 Nordeste 0 -- -- 93
2021-01-12 08:00:00 -0.8 7 Nordeste 10 Nordeste 0 -- -- 89
2021-01-12 07:00:00 -0.8 8 Nordeste 10 Nordeste 0 -- -- 89
2021-01-12 06:00:00 -1.3 6 Norte 11 Norte 0 -- -- 91
2021-01-12 05:00:00 -0.4 6 Norte 11 Norte 0 -- -- 88
2021-01-12 04:00:00 0 9 Nordeste 12 Norte 0 -- -- 87
2021-01-12 03:00:00 0.5 8 Nordeste 10 Nordeste 0 -- -- 86
2021-01-12 02:00:00 0.9 7 Norte 12 Nordeste 0 -- -- 87
2021-01-12 01:00:00 0.8 9 Norte 13 Nordeste 0 -- -- 88
2021-01-12 00:00:00 2.2 8 Nordeste 15 Nordeste 0 -- -- 83
2021-01-11 23:00:00 3.5 10 Nordeste 16 Nordeste 0 -- -- 76
2021-01-11 22:00:00 3.9 6 Nordeste 13 Nordeste 0 -- -- 76
2021-01-11 21:00:00 4.8 7 Nordeste 12 Nordeste 0 -- -- 79
2021-01-11 20:00:00 4.9 5 Este 9 Este 0 -- -- 83
2021-01-11 19:00:00 6.7 6 Este 10 Nordeste 0 -- -- 77
2021-01-11 18:00:00 9.5 5 Nordeste 12 Nordeste 0 -- -- 66
2021-01-11 17:00:00 10.4 8 Nordeste 19 Nordeste 0 -- -- 59
2021-01-11 16:00:00 10.3 11 Nordeste 23 Nordeste 0 -- -- 64
2021-01-11 15:00:00 9.7 14 Nordeste 23 Norte 0 -- -- 64
2021-01-11 14:00:00 9.1 11 Nordeste 21 Nordeste 0 -- -- 66
2021-01-11 13:00:00 7.9 11 Nordeste 19 Nordeste 0 -- -- 70
2021-01-11 12:00:00 6.7 11 Nordeste 19 Nordeste 0 -- -- 74
2021-01-11 11:00:00 4.9 8 Nordeste 14 Nordeste 0 -- -- 82
2021-01-11 10:00:00 2.4 5 Norte 8 Nordeste 0 -- -- 88
2021-01-11 09:00:00 0.5 0 Calma 8 Norte 0 -- -- 97
2021-01-11 08:00:00 0.4 8 Norte 14 Nordeste 0 -- -- 97
2021-01-11 07:00:00 1.2 9 Nordeste 13 Nordeste 0 -- -- 94
2021-01-11 06:00:00 1.4 4 Nordeste 9 Este 0 -- -- 92
2021-01-11 05:00:00 1.8 10 Nordeste 15 Nordeste 0 -- -- 91
2021-01-11 04:00:00 1.5 3 Este 14 Nordeste 0 -- -- 93
2021-01-11 03:00:00 2 7 Norte 19 Nordeste 0 -- -- 94
2021-01-11 02:00:00 3.2 14 Nordeste 22 Nordeste 0 -- -- 89
2021-01-11 01:00:00 3 10 Nordeste 21 Nordeste 0 -- -- 90
2021-01-11 00:00:00 2.7 8 Nordeste 12 Nordeste 0 -- -- 92
2021-01-10 23:00:00 3.7 12 Nordeste 18 Este 0 -- -- 89
2021-01-10 22:00:00 3.7 9 Este 15 Nordeste 0 -- -- 88
2021-01-10 21:00:00 4.3 5 Este 12 Norte 0 -- -- 85
2021-01-10 20:00:00 5.2 8 Norte 11 Norte 0 -- -- 77
2021-01-10 19:00:00 6.5 6 Nordeste 8 Norte 0 -- -- 75
2021-01-10 18:00:00 7.5 4 Nordeste 11 Norte 0 -- -- 74
2021-01-10 17:00:00 8.6 8 Nordeste 15 Este 0 -- -- 62
2021-01-10 16:00:00 8.8 8 Este 19 Nordeste 0 -- -- 71
2021-01-10 15:00:00 8.3 6 Este 14 Este 0 -- -- 68
2021-01-10 14:00:00 7.9 7 Nordeste 14 Nordeste 0 -- -- 73
2021-01-10 13:00:00 7.3 9 Nordeste 14 Nordeste 0 -- -- 81
2021-01-10 12:00:00 5.7 8 Nordeste 13 Nordeste 0 -- -- 88
2021-01-10 11:00:00 4.4 5 Este 16 Nordeste 0 -- -- 92
2021-01-10 10:00:00 3.1 9 Nordeste 17 Nordeste 0 -- -- 95
2021-01-10 09:00:00 1.7 9 Nordeste 13 Nordeste 0 -- -- 98
2021-01-10 08:00:00 1.9 6 Nordeste 11 Nordeste 0 -- -- 97
2021-01-10 07:00:00 2.5 6 Nordeste 10 Nordeste 0 -- -- 98
2021-01-10 06:00:00 2 7 Nordeste 15 Nordeste 0 -- -- 99
2021-01-10 05:00:00 1.4 8 Nordeste 11 Nordeste 0 -- -- 99
2021-01-10 04:00:00 1.8 8 Nordeste 12 Nordeste 0 -- -- 98
2021-01-10 03:00:00 1.7 4 Norte 10 Nordeste 0 -- -- 98
2021-01-10 02:00:00 2.8 7 Nordeste 12 Nordeste 0 -- -- 97
2021-01-10 01:00:00 2.8 2 Nordeste 7 Noroeste 0 -- -- 96
2021-01-10 00:00:00 3.1 2 Noroeste 11 Nordeste 0 -- -- 94
2021-01-09 23:00:00 4 9 Nordeste 15 Este 0 -- -- 89
2021-01-09 22:00:00 4.1 9 Este 22 Este 0 -- -- 90
2021-01-09 21:00:00 4 11 Este 19 Nordeste 0 -- -- 91
2021-01-09 20:00:00 3.5 6 Nordeste 10 Nordeste 0 -- -- 92
2021-01-09 19:00:00 4.8 4 Nordeste 6 Norte 0 -- -- 89
2021-01-09 18:00:00 6.4 3 Oeste 17 Sudoeste 0 -- -- 79
2021-01-09 17:00:00 8.4 10 Sudoeste 19 Sudoeste 0 -- -- 67
2021-01-09 16:00:00 7.5 13 Sudoeste 32 Sudoeste 0 -- -- 75
2021-01-09 15:00:00 6.7 17 Sudoeste 35 Sudoeste 0 -- -- 76
2021-01-09 14:00:00 6.1 21 Sudoeste 36 Sudoeste 0 -- -- 78
2021-01-09 13:00:00 6 18 Sudoeste 39 Sur 0 -- -- 81
2021-01-09 12:00:00 4.9 22 Sudoeste 40 Sudoeste 0 -- -- 84
2021-01-09 11:00:00 4.4 21 Sudoeste 42 Sur 0 -- -- 89
2021-01-09 10:00:00 4.1 19 Sudoeste 43 Sur 0 -- -- 93
2021-01-09 09:00:00 4.3 22 Sudoeste 47 Sudoeste 0 -- -- 93
2021-01-09 08:00:00 4.6 19 Sudoeste 52 Sudoeste 0 -- -- 93
2021-01-09 07:00:00 4.9 26 Sudoeste 45 Sudoeste 0 -- -- 95
2021-01-09 06:00:00 6 21 Sudoeste 48 Sudoeste 0.2 -- -- 99
2021-01-09 05:00:00 6.4 20 Sudoeste 35 Sudoeste 0 -- -- 100
2021-01-09 04:00:00 5.9 15 Sudoeste 37 Sudoeste 0 -- -- 100
2021-01-09 03:00:00 6.2 21 Sudoeste 39 Sudoeste 0 -- -- 100
2021-01-09 02:00:00 6.7 21 Sudoeste 52 Sudoeste 0.4 -- -- 100
2021-01-09 01:00:00 8.2 18 Sudoeste 32 Sudoeste 2.8 -- -- 100
2021-01-09 00:00:00 7.7 3 Norte 9 Este 2 -- -- 99
2021-01-08 23:00:00 7.4 4 Nordeste 10 Nordeste 1.6 -- -- 98
2021-01-08 22:00:00 7.6 6 Norte 14 Norte 1.4 -- -- 96
2021-01-08 21:00:00 7.9 7 Noroeste 16 Norte 0.8 -- -- 94
2021-01-08 20:00:00 8.2 5 Nordeste 10 Este 0 -- -- 92
2021-01-08 19:00:00 8.4 6 Nordeste 14 Nordeste 0 -- -- 90
2021-01-08 18:00:00 8.4 8 Nordeste 14 Nordeste 0 -- -- 91
2021-01-08 17:00:00 8.5 11 Nordeste 22 Nordeste 0 -- -- 89
2021-01-08 16:00:00 8 13 Nordeste 30 Nordeste 0 -- -- 92
2021-01-08 15:00:00 7.3 18 Nordeste 31 Nordeste 0.2 -- -- 95
2021-01-08 14:00:00 6.9 19 Nordeste 31 Nordeste 1.4 -- -- 97
2021-01-08 13:00:00 6.6 16 Nordeste 30 Nordeste 1.6 -- -- 98
2021-01-08 12:00:00 6.3 13 Nordeste 21 Nordeste 1.8 -- -- 98
2021-01-08 11:00:00 6.2 12 Nordeste 24 Nordeste 0.2 -- -- 97
2021-01-08 10:00:00 5.6 12 Nordeste 23 Nordeste 1 -- -- 97
2021-01-08 09:00:00 5.3 16 Nordeste 26 Nordeste 1.2 -- -- 97
2021-01-08 08:00:00 5.2 13 Nordeste 24 Nordeste 0.8 -- -- 98
2021-01-08 07:00:00 5.1 18 Nordeste 29 Nordeste 0.4 -- -- 97
2021-01-08 06:00:00 5.2 19 Nordeste 30 Nordeste 0 -- -- 96
2021-01-08 05:00:00 5.3 20 Nordeste 33 Este 0.2 -- -- 96
2021-01-08 04:00:00 5.1 18 Nordeste 28 Nordeste 0.8 -- -- 97
2021-01-08 03:00:00 5 13 Nordeste 22 Nordeste 0.8 -- -- 97
2021-01-08 02:00:00 5 15 Nordeste 27 Nordeste 2 -- -- 97
2021-01-08 01:00:00 5 14 Nordeste 22 Nordeste 2.6 -- -- 97
2021-01-08 00:00:00 4.9 8 Nordeste 20 Nordeste 1.4 -- -- 97
2021-01-07 23:00:00 4.9 10 Nordeste 23 Nordeste 1.4 -- -- 96
2021-01-07 22:00:00 5.1 15 Nordeste 28 Nordeste 0.8 -- -- 96
2021-01-07 21:00:00 5.3 19 Nordeste 29 Nordeste 0.6 -- -- 95
2021-01-07 20:00:00 5.4 18 Nordeste 25 Nordeste 0.6 -- -- 95
2021-01-07 19:00:00 5.5 12 Nordeste 22 Nordeste 0.2 -- -- 96
2021-01-07 18:00:00 5.7 13 Nordeste 23 Nordeste 0 -- -- 95
2021-01-07 17:00:00 6 16 Nordeste 25 Nordeste 0.2 -- -- 95
2021-01-07 16:00:00 6 14 Nordeste 21 Nordeste 0.8 -- -- 96
2021-01-07 15:00:00 6.2 13 Nordeste 22 Nordeste 0.4 -- -- 95
2021-01-07 14:00:00 6.1 13 Nordeste 23 Nordeste 0.4 -- -- 95
2021-01-07 13:00:00 5.9 11 Nordeste 19 Nordeste 1.2 -- -- 97
2021-01-07 12:00:00 5.7 10 Nordeste 20 Nordeste 1.6 -- -- 97
2021-01-07 11:00:00 5.6 15 Nordeste 26 Nordeste 0.2 -- -- 95
2021-01-07 10:00:00 5.4 12 Nordeste 21 Nordeste 1 -- -- 97
2021-01-07 09:00:00 5.2 10 Norte 20 Nordeste 1.4 -- -- 97
2021-01-07 08:00:00 5.4 14 Nordeste 21 Nordeste 1 -- -- 96
2021-01-07 07:00:00 5.4 10 Nordeste 22 Nordeste 0.4 -- -- 97
2021-01-07 06:00:00 5.4 10 Nordeste 20 Nordeste 0.2 -- -- 96
2021-01-07 05:00:00 5.6 10 Nordeste 24 Nordeste 0.4 -- -- 95
2021-01-07 04:00:00 5.7 15 Nordeste 27 Nordeste 0.4 -- -- 95
2021-01-07 03:00:00 5.6 17 Nordeste 27 Nordeste 0.4 -- -- 96
2021-01-07 02:00:00 5.8 9 Nordeste 16 Nordeste 1 -- -- 97
2021-01-07 01:00:00 5.7 4 Norte 16 Nordeste 0.8 -- -- 96
2021-01-07 00:00:00 5.5 5 Norte 14 Este 0.4 -- -- 95
2021-01-06 23:00:00 5.9 12 Nordeste 17 Nordeste 0 -- -- 91
2021-01-06 22:00:00 6.5 12 Nordeste 19 Nordeste 1.2 -- -- 83
2021-01-06 21:00:00 7.1 6 Nordeste 14 Este 0.2 -- -- 75
2021-01-06 20:00:00 7.4 6 Nordeste 15 Nordeste 0 -- -- 71
2021-01-06 19:00:00 7.6 8 Nordeste 14 Nordeste 0 -- -- 72
2021-01-06 18:00:00 8.1 8 Nordeste 16 Nordeste 0 -- -- 73
2021-01-06 17:00:00 8.9 8 Nordeste 24 Nordeste 0 -- -- 71
2021-01-06 16:00:00 8.9 17 Nordeste 25 Nordeste 0 -- -- 68
2021-01-06 15:00:00 8.9 15 Nordeste 21 Nordeste 0 -- -- 70
2021-01-06 14:00:00 8.7 10 Nordeste 19 Nordeste 0 -- -- 71
2021-01-06 13:00:00 7.4 8 Nordeste 19 Nordeste 0 -- -- 75
2021-01-06 12:00:00 6 12 Nordeste 22 Nordeste 0 -- -- 77
2021-01-06 11:00:00 5 10 Nordeste 21 Nordeste 0 -- -- 80
2021-01-06 10:00:00 3.8 10 Nordeste 16 Nordeste 0 -- -- 83
2021-01-06 09:00:00 3 9 Nordeste 12 Nordeste 0 -- -- 88
2021-01-06 08:00:00 3.1 9 Norte 15 Este 0 -- -- 87
2021-01-06 07:00:00 2.2 8 Norte 13 Norte 0 -- -- 90
2021-01-06 06:00:00 2.6 7 Nordeste 11 Nordeste 0 -- -- 87
2021-01-06 05:00:00 3.2 6 Nordeste 12 Nordeste 0 -- -- 80
2021-01-06 04:00:00 2.6 8 Nordeste 12 Nordeste 0 -- -- 84
2021-01-06 03:00:00 2.7 2 Noroeste 10 Norte 0 -- -- 82
2021-01-06 02:00:00 2.1 5 Norte 10 Norte 0 -- -- 85
2021-01-06 01:00:00 3.3 8 Nordeste 17 Nordeste 0 -- -- 77
2021-01-06 00:00:00 3.5 10 Nordeste 20 Nordeste 0 -- -- 79
2021-01-05 23:00:00 3 9 Nordeste 13 Nordeste 0 -- -- 86
2021-01-05 22:00:00 3.8 7 Norte 10 Nordeste 0 -- -- 83
2021-01-05 21:00:00 4.7 6 Nordeste 10 Norte 0 -- -- 81
2021-01-05 20:00:00 5 7 Norte 9 Norte 0 -- -- 81
2021-01-05 19:00:00 6.3 6 Nordeste 11 Nordeste 0 -- -- 78
2021-01-05 18:00:00 7.6 8 Nordeste 18 Nordeste 0 -- -- 73
2021-01-05 17:00:00 8.6 13 Nordeste 20 Nordeste 0 -- -- 66
2021-01-05 16:00:00 9 13 Nordeste 19 Nordeste 0 -- -- 65
2021-01-05 15:00:00 9.3 11 Nordeste 19 Nordeste 0 -- -- 65
2021-01-05 14:00:00 8.9 11 Nordeste 20 Nordeste 0 -- -- 71
2021-01-05 13:00:00 7.9 12 Nordeste 20 Nordeste 0 -- -- 80
2021-01-05 12:00:00 6.3 13 Nordeste 21 Este 0 -- -- 85
2021-01-05 11:00:00 4.3 12 Nordeste 19 Nordeste 0 -- -- 95
2021-01-05 10:00:00 3.4 7 Nordeste 11 Nordeste 0 -- -- 95
2021-01-05 09:00:00 2.8 9 Nordeste 14 Este 0 -- -- 97
2021-01-05 08:00:00 2.4 8 Nordeste 17 Este 0 -- -- 99
2021-01-05 07:00:00 2.8 10 Nordeste 17 Nordeste 0 -- -- 99
2021-01-05 06:00:00 2.4 6 Nordeste 14 Norte 0.2 -- -- 99
2021-01-05 05:00:00 2.4 9 Norte 14 Norte 0 -- -- 98
2021-01-05 04:00:00 3 6 Norte 9 Este 0 -- -- 98
2021-01-05 03:00:00 3 6 Nordeste 12 Norte 0 -- -- 98
2021-01-05 02:00:00 2.8 0 Calma 8 Este 0 -- -- 97
2021-01-05 01:00:00 2.9 5 Norte 10 Norte 0 -- -- 97
2021-01-05 00:00:00 4.2 2 Este 7 Este 0 -- -- 94
2021-01-04 23:00:00 5 4 Nordeste 8 Norte 0 -- -- 92
2021-01-04 22:00:00 5.5 5 Oeste 18 Noroeste 0.8 -- -- 91
2021-01-04 21:00:00 6.4 2 Sudoeste 5 Sudoeste 0 -- -- 80
2021-01-04 20:00:00 6.4 3 Sudoeste 9 Oeste 0 -- -- 81
2021-01-04 19:00:00 6.7 6 Sudoeste 14 Sudoeste 0 -- -- 80
2021-01-04 18:00:00 7.9 6 Sudoeste 19 Sur 0 -- -- 72
2021-01-04 17:00:00 8.2 9 Sudoeste 21 Sur 0 -- -- 70
2021-01-04 16:00:00 8.8 10 Sudoeste 17 Sudoeste 0 -- -- 67
2021-01-04 15:00:00 7.4 8 Sudoeste 15 Sur 0 -- -- 73
2021-01-04 14:00:00 6.9 5 Sur 12 Sudoeste 0 -- -- 76
2021-01-04 13:00:00 6.8 3 Sudoeste 8 Sudoeste 0 -- -- 77
2021-01-04 12:00:00 3.1 0 Calma 8 Norte 0 -- -- 90
2021-01-04 11:00:00 1.4 5 Norte 9 Norte 0 -- -- 93
2021-01-04 10:00:00 2 0 Calma 4 Norte 0 -- -- 86
2021-01-04 09:00:00 -0.7 0 Calma -- -- 0 -- -- 96
2021-01-04 08:00:00 -1.6 0 Calma 4 Este 0 -- -- 96
2021-01-04 07:00:00 -0.7 2 Nordeste 4 Este 0 -- -- 95
2021-01-04 06:00:00 -0.8 0 Calma 5 Norte 0 -- -- 95
2021-01-04 05:00:00 0.1 0 Calma 5 Noroeste 0 -- -- 92
2021-01-04 04:00:00 0.3 2 Norte 5 Sudoeste 0 -- -- 90
2021-01-04 03:00:00 1.7 5 Sur 9 Sudoeste 0 -- -- 86
2021-01-04 02:00:00 1.9 4 Sur 9 Sur 0 -- -- 82
2021-01-04 01:00:00 2 4 Sur 7 Sudoeste 0 -- -- 80
2021-01-04 00:00:00 1.9 3 Sur 5 Sur 0 -- -- 81
2021-01-03 23:00:00 2.7 2 Sudoeste 7 Sur 0 -- -- 77
2021-01-03 22:00:00 3.4 4 Sur 6 Sur 0 -- -- 75
2021-01-03 21:00:00 4.1 4 Sur 10 Sur 0 -- -- 73
2021-01-03 20:00:00 4.8 8 Sur 10 Sur 0 -- -- 72
2021-01-03 19:00:00 5.6 6 Sudoeste 13 Sudoeste 0 -- -- 69
2021-01-03 18:00:00 7.6 8 Sudoeste 17 Sudoeste 0 -- -- 62
2021-01-03 17:00:00 9.2 8 Sudoeste 18 Sudoeste 0 -- -- 57
2021-01-03 16:00:00 9 10 Sudoeste 19 Sudoeste 0 -- -- 58
2021-01-03 15:00:00 9 10 Sudoeste 17 Sudoeste 0 -- -- 59
2021-01-03 14:00:00 7.4 8 Sur 14 Sudoeste 0 -- -- 68
2021-01-03 13:00:00 5.9 8 Sudoeste 12 Sur 0 -- -- 71
2021-01-03 12:00:00 4.2 4 Sudoeste 6 Sudoeste 0 -- -- 73
2021-01-03 11:00:00 3.7 0 Calma 5 Sudeste 0 -- -- 78
2021-01-03 10:00:00 0.6 2 Nordeste 9 Norte 0 -- -- 93
2021-01-03 09:00:00 -1.8 0 Calma 5 Norte 0 -- -- 97
2021-01-03 08:00:00 -2.8 0 Calma 5 Sur 0 -- -- 97
2021-01-03 07:00:00 -1.8 0 Calma 0 Calma 0 -- -- 98
2021-01-03 06:00:00 -1.7 0 Calma 3 Sur 0 -- -- 98
2021-01-03 05:00:00 -1.3 0 Calma 6 Sudeste 0 -- -- 97
2021-01-03 04:00:00 -0.8 3 Sudoeste 4 Sudoeste 0 -- -- 96
2021-01-03 03:00:00 -0.8 2 Sur 3 Sur 0 -- -- 94
2021-01-03 02:00:00 -0.7 4 Oeste 6 Sudoeste 0 -- -- 92
2021-01-03 01:00:00 1 0 Calma 4 Este 0 -- -- 87
2021-01-03 00:00:00 1.7 4 Nordeste 6 Nordeste 0 -- -- 85
2021-01-02 23:00:00 1.4 3 Sudoeste 6 Sudoeste 0 -- -- 85
2021-01-02 22:00:00 2.9 0 Calma 5 Sur 0 -- -- 80
2021-01-02 21:00:00 3.6 0 Calma 9 Noroeste 0 -- -- 77
2021-01-02 20:00:00 4.9 3 Norte 9 Noroeste 0 -- -- 71
2021-01-02 19:00:00 5.2 3 Noroeste 8 Sudoeste 0 -- -- 81
2021-01-02 18:00:00 7.2 8 Sudoeste 20 Oeste 0 -- -- 72
2021-01-02 17:00:00 8.6 14 Sudoeste 22 Oeste 0 -- -- 64
2021-01-02 16:00:00 8.4 10 Sur 23 Sudoeste 0 -- -- 69
2021-01-02 15:00:00 8 9 Sudoeste 20 Sudoeste 0 -- -- 74
2021-01-02 14:00:00 6.1 9 Sudoeste 17 Sudoeste 0 -- -- 82